sensor_id;sensor_type;location;lat;lon;timestamp;temperature;humidity
16158;DHT22;8184;60.256;18.694;2022-08-19T00:01:55;18.00;99.90
16158;DHT22;8184;60.256;18.694;2022-08-19T00:04:26;18.00;99.90
16158;DHT22;8184;60.256;18.694;2022-08-19T00:06:55;18.00;99.90
16158;DHT22;8184;60.256;18.694;2022-08-19T00:09:23;18.10;99.90
16158;DHT22;8184;60.256;18.694;2022-08-19T00:11:52;18.10;99.90
16158;DHT22;8184;60.256;18.694;2022-08-19T00:14:22;18.10;99.90
16158;DHT22;8184;60.256;18.694;2022-08-19T00:16:51;18.10;99.90
16158;DHT22;8184;60.256;18.694;2022-08-19T00:19:23;18.10;99.90
16158;DHT22;8184;60.256;18.694;2022-08-19T00:21:51;18.10;99.90
16158;DHT22;8184;60.256;18.694;2022-08-19T00:24:23;18.10;99.90
16158;DHT22;8184;60.256;18.694;2022-08-19T00:26:51;18.10;99.90
16158;DHT22;8184;60.256;18.694;2022-08-19T00:29:20;18.10;99.90
16158;DHT22;8184;60.256;18.694;2022-08-19T00:31:49;18.20;99.90
16158;DHT22;8184;60.256;18.694;2022-08-19T00:34:19;18.20;99.90
16158;DHT22;8184;60.256;18.694;2022-08-19T00:36:49;18.20;99.90
16158;DHT22;8184;60.256;18.694;2022-08-19T00:39:17;18.20;99.90
16158;DHT22;8184;60.256;18.694;2022-08-19T00:41:46;18.20;99.90
16158;DHT22;8184;60.256;18.694;2022-08-19T00:44:16;18.20;99.90
16158;DHT22;8184;60.256;18.694;2022-08-19T00:46:52;18.20;99.90
16158;DHT22;8184;60.256;18.694;2022-08-19T00:49:25;18.20;99.90
16158;DHT22;8184;60.256;18.694;2022-08-19T00:51:57;18.20;99.90
16158;DHT22;8184;60.256;18.694;2022-08-19T00:54:28;18.20;99.90
16158;DHT22;8184;60.256;18.694;2022-08-19T00:56:58;18.20;99.90
16158;DHT22;8184;60.256;18.694;2022-08-19T00:59:27;18.30;99.90
16158;DHT22;8184;60.256;18.694;2022-08-19T01:02:15;18.20;99.90
16158;DHT22;8184;60.256;18.694;2022-08-19T01:04:44;18.20;99.90
16158;DHT22;8184;60.256;18.694;2022-08-19T01:07:13;18.30;99.90
16158;DHT22;8184;60.256;18.694;2022-08-19T01:09:45;18.30;99.90
16158;DHT22;8184;60.256;18.694;2022-08-19T01:12:13;18.30;99.90
16158;DHT22;8184;60.256;18.694;2022-08-19T01:14:42;18.30;99.90
16158;DHT22;8184;60.256;18.694;2022-08-19T01:17:10;18.30;99.90
16158;DHT22;8184;60.256;18.694;2022-08-19T01:19:40;18.30;99.90
16158;DHT22;8184;60.256;18.694;2022-08-19T01:22:12;18.40;99.90
16158;DHT22;8184;60.256;18.694;2022-08-19T01:24:43;18.30;99.90
16158;DHT22;8184;60.256;18.694;2022-08-19T01:27:15;18.30;99.90
16158;DHT22;8184;60.256;18.694;2022-08-19T01:29:43;18.20;99.90
16158;DHT22;8184;60.256;18.694;2022-08-19T01:32:13;18.20;99.90
16158;DHT22;8184;60.256;18.694;2022-08-19T01:34:59;18.30;99.90
16158;DHT22;8184;60.256;18.694;2022-08-19T01:37:40;18.30;99.90
16158;DHT22;8184;60.256;18.694;2022-08-19T01:40:11;18.30;99.90
16158;DHT22;8184;60.256;18.694;2022-08-19T01:42:39;18.30;99.90
16158;DHT22;8184;60.256;18.694;2022-08-19T01:45:08;18.30;99.90
16158;DHT22;8184;60.256;18.694;2022-08-19T01:47:36;18.30;99.90
16158;DHT22;8184;60.256;18.694;2022-08-19T01:50:06;18.20;99.90
16158;DHT22;8184;60.256;18.694;2022-08-19T01:52:35;18.20;99.90
16158;DHT22;8184;60.256;18.694;2022-08-19T01:55:07;18.20;99.90
16158;DHT22;8184;60.256;18.694;2022-08-19T01:57:37;18.20;99.90
16158;DHT22;8184;60.256;18.694;2022-08-19T02:00:08;18.20;99.90
16158;DHT22;8184;60.256;18.694;2022-08-19T02:02:36;18.20;99.90
16158;DHT22;8184;60.256;18.694;2022-08-19T02:05:10;18.10;99.90
16158;DHT22;8184;60.256;18.694;2022-08-19T02:07:38;18.20;99.90
16158;DHT22;8184;60.256;18.694;2022-08-19T02:10:08;18.10;99.90
16158;DHT22;8184;60.256;18.694;2022-08-19T02:12:39;18.10;99.90
16158;DHT22;8184;60.256;18.694;2022-08-19T02:15:08;18.10;99.90
16158;DHT22;8184;60.256;18.694;2022-08-19T02:17:36;18.00;99.90
16158;DHT22;8184;60.256;18.694;2022-08-19T02:20:04;17.90;99.90
16158;DHT22;8184;60.256;18.694;2022-08-19T02:22:34;17.90;99.90
16158;DHT22;8184;60.256;18.694;2022-08-19T02:25:02;17.80;99.90
16158;DHT22;8184;60.256;18.694;2022-08-19T02:27:31;17.70;99.90
16158;DHT22;8184;60.256;18.694;2022-08-19T02:30:02;17.70;99.90
16158;DHT22;8184;60.256;18.694;2022-08-19T02:32:31;17.70;99.90
16158;DHT22;8184;60.256;18.694;2022-08-19T02:35:10;17.80;99.90
16158;DHT22;8184;60.256;18.694;2022-08-19T02:37:39;17.70;99.90
16158;DHT22;8184;60.256;18.694;2022-08-19T02:40:24;17.70;99.90
16158;DHT22;8184;60.256;18.694;2022-08-19T02:42:52;17.60;99.90
16158;DHT22;8184;60.256;18.694;2022-08-19T02:45:22;17.60;99.90
16158;DHT22;8184;60.256;18.694;2022-08-19T02:47:50;17.60;99.90
16158;DHT22;8184;60.256;18.694;2022-08-19T02:50:18;17.50;99.90
16158;DHT22;8184;60.256;18.694;2022-08-19T02:52:46;17.50;99.90
16158;DHT22;8184;60.256;18.694;2022-08-19T02:55:14;17.40;99.90
16158;DHT22;8184;60.256;18.694;2022-08-19T02:57:42;17.40;99.90
16158;DHT22;8184;60.256;18.694;2022-08-19T03:00:11;17.40;99.90
16158;DHT22;8184;60.256;18.694;2022-08-19T03:02:43;17.50;99.90
16158;DHT22;8184;60.256;18.694;2022-08-19T03:05:19;17.50;99.90
16158;DHT22;8184;60.256;18.694;2022-08-19T03:08:08;17.50;99.90
16158;DHT22;8184;60.256;18.694;2022-08-19T03:10:42;17.50;99.90
16158;DHT22;8184;60.256;18.694;2022-08-19T03:13:13;17.40;99.90
16158;DHT22;8184;60.256;18.694;2022-08-19T03:15:43;17.40;99.90
16158;DHT22;8184;60.256;18.694;2022-08-19T03:18:15;17.30;99.90
16158;DHT22;8184;60.256;18.694;2022-08-19T03:20:44;17.20;99.90
16158;DHT22;8184;60.256;18.694;2022-08-19T03:23:13;17.20;99.90
16158;DHT22;8184;60.256;18.694;2022-08-19T03:25:43;17.20;99.90
16158;DHT22;8184;60.256;18.694;2022-08-19T03:28:23;17.30;99.90
16158;DHT22;8184;60.256;18.694;2022-08-19T03:30:55;17.20;99.90
16158;DHT22;8184;60.256;18.694;2022-08-19T03:33:28;17.20;99.90
16158;DHT22;8184;60.256;18.694;2022-08-19T03:36:01;17.20;99.90
16158;DHT22;8184;60.256;18.694;2022-08-19T03:38:30;17.10;99.90
16158;DHT22;8184;60.256;18.694;2022-08-19T03:41:02;17.10;99.90
16158;DHT22;8184;60.256;18.694;2022-08-19T03:43:30;17.10;99.90
16158;DHT22;8184;60.256;18.694;2022-08-19T03:46:01;17.00;99.90
16158;DHT22;8184;60.256;18.694;2022-08-19T03:48:32;17.10;99.90
16158;DHT22;8184;60.256;18.694;2022-08-19T03:51:01;17.00;99.90
16158;DHT22;8184;60.256;18.694;2022-08-19T03:53:30;17.00;99.90
16158;DHT22;8184;60.256;18.694;2022-08-19T03:55:58;17.00;99.90
16158;DHT22;8184;60.256;18.694;2022-08-19T03:58:27;17.00;99.90
16158;DHT22;8184;60.256;18.694;2022-08-19T04:00:56;17.10;99.90
16158;DHT22;8184;60.256;18.694;2022-08-19T04:03:24;17.00;99.90
16158;DHT22;8184;60.256;18.694;2022-08-19T04:05:54;17.10;99.90
16158;DHT22;8184;60.256;18.694;2022-08-19T04:08:22;17.10;99.90
16158;DHT22;8184;60.256;18.694;2022-08-19T04:10:51;17.10;99.90
16158;DHT22;8184;60.256;18.694;2022-08-19T04:13:19;17.10;99.90
16158;DHT22;8184;60.256;18.694;2022-08-19T04:15:47;17.10;99.90
16158;DHT22;8184;60.256;18.694;2022-08-19T04:18:16;17.20;99.90
16158;DHT22;8184;60.256;18.694;2022-08-19T04:20:45;17.10;99.90
16158;DHT22;8184;60.256;18.694;2022-08-19T04:23:16;17.20;99.90
16158;DHT22;8184;60.256;18.694;2022-08-19T04:25:45;17.30;99.90
16158;DHT22;8184;60.256;18.694;2022-08-19T04:28:13;17.20;99.90
16158;DHT22;8184;60.256;18.694;2022-08-19T04:30:42;17.30;99.90
16158;DHT22;8184;60.256;18.694;2022-08-19T04:33:11;17.30;99.90
16158;DHT22;8184;60.256;18.694;2022-08-19T04:35:41;17.30;99.90
16158;DHT22;8184;60.256;18.694;2022-08-19T04:38:10;17.40;99.90
16158;DHT22;8184;60.256;18.694;2022-08-19T04:40:41;17.50;99.90
16158;DHT22;8184;60.256;18.694;2022-08-19T04:43:37;17.70;99.90
16158;DHT22;8184;60.256;18.694;2022-08-19T04:46:06;17.90;99.90
16158;DHT22;8184;60.256;18.694;2022-08-19T04:48:35;18.10;99.90
16158;DHT22;8184;60.256;18.694;2022-08-19T04:51:14;18.30;99.90
16158;DHT22;8184;60.256;18.694;2022-08-19T04:53:43;18.40;99.90
16158;DHT22;8184;60.256;18.694;2022-08-19T04:56:13;18.40;99.90
16158;DHT22;8184;60.256;18.694;2022-08-19T04:58:42;18.60;99.90
16158;DHT22;8184;60.256;18.694;2022-08-19T05:01:11;18.80;99.90
16158;DHT22;8184;60.256;18.694;2022-08-19T05:03:40;18.90;99.90
16158;DHT22;8184;60.256;18.694;2022-08-19T05:06:08;19.20;99.90
16158;DHT22;8184;60.256;18.694;2022-08-19T05:08:37;19.30;99.90
16158;DHT22;8184;60.256;18.694;2022-08-19T05:11:11;19.50;99.90
16158;DHT22;8184;60.256;18.694;2022-08-19T05:13:41;19.70;99.90
16158;DHT22;8184;60.256;18.694;2022-08-19T05:16:10;19.80;99.90
16158;DHT22;8184;60.256;18.694;2022-08-19T05:18:39;19.90;99.90
16158;DHT22;8184;60.256;18.694;2022-08-19T05:21:25;20.00;99.90
16158;DHT22;8184;60.256;18.694;2022-08-19T05:24:10;20.00;99.90
16158;DHT22;8184;60.256;18.694;2022-08-19T05:26:42;20.10;99.90
16158;DHT22;8184;60.256;18.694;2022-08-19T05:29:17;20.00;99.90
16158;DHT22;8184;60.256;18.694;2022-08-19T05:31:48;20.00;99.90
16158;DHT22;8184;60.256;18.694;2022-08-19T05:34:20;20.10;99.90
16158;DHT22;8184;60.256;18.694;2022-08-19T05:36:49;20.30;99.90
16158;DHT22;8184;60.256;18.694;2022-08-19T05:39:19;20.60;99.90
16158;DHT22;8184;60.256;18.694;2022-08-19T05:41:48;20.80;99.90
16158;DHT22;8184;60.256;18.694;2022-08-19T05:44:18;20.90;99.90
16158;DHT22;8184;60.256;18.694;2022-08-19T05:46:47;20.50;99.90
16158;DHT22;8184;60.256;18.694;2022-08-19T05:49:26;20.40;99.90
16158;DHT22;8184;60.256;18.694;2022-08-19T05:51:55;20.50;99.90
16158;DHT22;8184;60.256;18.694;2022-08-19T05:54:24;20.50;99.90
16158;DHT22;8184;60.256;18.694;2022-08-19T05:56:52;20.60;99.90
16158;DHT22;8184;60.256;18.694;2022-08-19T05:59:24;20.60;99.90
16158;DHT22;8184;60.256;18.694;2022-08-19T06:01:53;20.60;99.90
16158;DHT22;8184;60.256;18.694;2022-08-19T06:04:23;20.60;99.90
16158;DHT22;8184;60.256;18.694;2022-08-19T06:06:52;20.70;99.90
16158;DHT22;8184;60.256;18.694;2022-08-19T06:09:20;20.70;99.90
16158;DHT22;8184;60.256;18.694;2022-08-19T06:11:49;20.70;99.90
16158;DHT22;8184;60.256;18.694;2022-08-19T06:14:22;20.70;99.90
16158;DHT22;8184;60.256;18.694;2022-08-19T06:16:55;20.70;99.90
16158;DHT22;8184;60.256;18.694;2022-08-19T06:19:23;20.80;99.90
16158;DHT22;8184;60.256;18.694;2022-08-19T06:21:52;20.70;99.90
16158;DHT22;8184;60.256;18.694;2022-08-19T06:24:22;20.80;99.90
16158;DHT22;8184;60.256;18.694;2022-08-19T06:26:51;21.30;99.90
16158;DHT22;8184;60.256;18.694;2022-08-19T06:29:26;21.30;99.90
16158;DHT22;8184;60.256;18.694;2022-08-19T06:31:58;21.60;99.90
16158;DHT22;8184;60.256;18.694;2022-08-19T06:34:27;21.50;99.90
16158;DHT22;8184;60.256;18.694;2022-08-19T06:36:56;21.50;99.90
16158;DHT22;8184;60.256;18.694;2022-08-19T06:39:28;21.70;99.90
16158;DHT22;8184;60.256;18.694;2022-08-19T06:41:57;21.30;99.90
16158;DHT22;8184;60.256;18.694;2022-08-19T06:44:27;21.40;99.90
16158;DHT22;8184;60.256;18.694;2022-08-19T06:46:58;21.70;99.90
16158;DHT22;8184;60.256;18.694;2022-08-19T06:49:40;21.90;99.90
16158;DHT22;8184;60.256;18.694;2022-08-19T06:52:10;22.10;99.90
16158;DHT22;8184;60.256;18.694;2022-08-19T06:54:40;22.20;99.90
16158;DHT22;8184;60.256;18.694;2022-08-19T06:57:21;22.20;99.90
16158;DHT22;8184;60.256;18.694;2022-08-19T06:59:49;21.90;99.90
16158;DHT22;8184;60.256;18.694;2022-08-19T07:02:19;22.00;99.90
16158;DHT22;8184;60.256;18.694;2022-08-19T07:04:47;22.00;99.90
16158;DHT22;8184;60.256;18.694;2022-08-19T07:07:18;22.40;99.90
16158;DHT22;8184;60.256;18.694;2022-08-19T07:09:48;21.40;99.90
16158;DHT22;8184;60.256;18.694;2022-08-19T07:12:25;20.60;99.90
16158;DHT22;8184;60.256;18.694;2022-08-19T07:14:56;20.60;99.90
16158;DHT22;8184;60.256;18.694;2022-08-19T07:17:26;20.70;99.90
16158;DHT22;8184;60.256;18.694;2022-08-19T07:19:54;21.00;99.90
16158;DHT22;8184;60.256;18.694;2022-08-19T07:22:35;21.20;99.90
16158;DHT22;8184;60.256;18.694;2022-08-19T07:25:06;21.60;99.90
16158;DHT22;8184;60.256;18.694;2022-08-19T07:27:37;22.00;99.90
16158;DHT22;8184;60.256;18.694;2022-08-19T07:30:06;22.00;99.90
16158;DHT22;8184;60.256;18.694;2022-08-19T07:32:39;21.70;99.90
16158;DHT22;8184;60.256;18.694;2022-08-19T07:35:09;22.20;99.90
16158;DHT22;8184;60.256;18.694;2022-08-19T07:37:37;22.80;99.90
16158;DHT22;8184;60.256;18.694;2022-08-19T07:40:08;23.00;99.90
16158;DHT22;8184;60.256;18.694;2022-08-19T07:42:37;22.70;99.90
16158;DHT22;8184;60.256;18.694;2022-08-19T07:45:08;22.60;99.90
16158;DHT22;8184;60.256;18.694;2022-08-19T07:47:36;22.30;99.90
16158;DHT22;8184;60.256;18.694;2022-08-19T07:50:18;22.40;99.90
16158;DHT22;8184;60.256;18.694;2022-08-19T07:52:47;22.50;99.90
16158;DHT22;8184;60.256;18.694;2022-08-19T07:55:17;22.60;99.90
16158;DHT22;8184;60.256;18.694;2022-08-19T07:58:06;22.70;99.90
16158;DHT22;8184;60.256;18.694;2022-08-19T08:00:34;22.90;99.90
16158;DHT22;8184;60.256;18.694;2022-08-19T08:03:06;23.00;99.90
16158;DHT22;8184;60.256;18.694;2022-08-19T08:05:36;23.50;99.90
16158;DHT22;8184;60.256;18.694;2022-08-19T08:08:22;23.60;99.90
16158;DHT22;8184;60.256;18.694;2022-08-19T08:11:14;23.80;99.90
16158;DHT22;8184;60.256;18.694;2022-08-19T08:13:45;23.80;99.90
16158;DHT22;8184;60.256;18.694;2022-08-19T08:16:30;23.90;99.90
16158;DHT22;8184;60.256;18.694;2022-08-19T08:19:00;23.90;99.90
16158;DHT22;8184;60.256;18.694;2022-08-19T08:21:34;23.50;99.90
16158;DHT22;8184;60.256;18.694;2022-08-19T08:24:02;23.80;99.90
16158;DHT22;8184;60.256;18.694;2022-08-19T08:26:30;24.10;99.90
16158;DHT22;8184;60.256;18.694;2022-08-19T08:29:00;24.30;99.90
16158;DHT22;8184;60.256;18.694;2022-08-19T08:31:38;24.40;99.90
16158;DHT22;8184;60.256;18.694;2022-08-19T08:34:06;24.50;99.90
16158;DHT22;8184;60.256;18.694;2022-08-19T08:36:38;24.20;99.90
16158;DHT22;8184;60.256;18.694;2022-08-19T08:39:08;23.00;99.90
16158;DHT22;8184;60.256;18.694;2022-08-19T08:41:37;22.60;99.90
16158;DHT22;8184;60.256;18.694;2022-08-19T08:44:11;22.20;99.90
16158;DHT22;8184;60.256;18.694;2022-08-19T08:46:46;22.00;99.90
16158;DHT22;8184;60.256;18.694;2022-08-19T08:49:21;21.80;99.90
16158;DHT22;8184;60.256;18.694;2022-08-19T08:51:54;22.10;99.90
16158;DHT22;8184;60.256;18.694;2022-08-19T08:54:29;22.40;99.90
16158;DHT22;8184;60.256;18.694;2022-08-19T08:57:00;22.00;99.90
16158;DHT22;8184;60.256;18.694;2022-08-19T08:59:30;22.10;99.90
16158;DHT22;8184;60.256;18.694;2022-08-19T09:02:02;21.90;99.90
16158;DHT22;8184;60.256;18.694;2022-08-19T09:04:33;22.10;99.90
16158;DHT22;8184;60.256;18.694;2022-08-19T09:07:09;22.20;99.90
16158;DHT22;8184;60.256;18.694;2022-08-19T09:10:02;22.50;99.90
16158;DHT22;8184;60.256;18.694;2022-08-19T09:12:33;23.00;99.90
16158;DHT22;8184;60.256;18.694;2022-08-19T09:15:04;23.00;99.90
16158;DHT22;8184;60.256;18.694;2022-08-19T09:17:37;22.20;99.90
16158;DHT22;8184;60.256;18.694;2022-08-19T09:20:19;22.30;99.90
16158;DHT22;8184;60.256;18.694;2022-08-19T09:22:50;22.70;99.90
16158;DHT22;8184;60.256;18.694;2022-08-19T09:25:18;23.00;99.90
16158;DHT22;8184;60.256;18.694;2022-08-19T09:27:53;23.20;99.90
16158;DHT22;8184;60.256;18.694;2022-08-19T09:30:29;23.00;99.90
16158;DHT22;8184;60.256;18.694;2022-08-19T09:32:58;22.70;99.90
16158;DHT22;8184;60.256;18.694;2022-08-19T09:35:29;23.10;99.90
16158;DHT22;8184;60.256;18.694;2022-08-19T09:38:01;23.50;99.90
16158;DHT22;8184;60.256;18.694;2022-08-19T09:40:29;23.50;99.90
16158;DHT22;8184;60.256;18.694;2022-08-19T09:43:03;23.30;99.90
16158;DHT22;8184;60.256;18.694;2022-08-19T09:45:35;23.40;99.90
16158;DHT22;8184;60.256;18.694;2022-08-19T09:48:04;23.50;99.90
16158;DHT22;8184;60.256;18.694;2022-08-19T09:50:37;23.40;99.90
16158;DHT22;8184;60.256;18.694;2022-08-19T09:53:19;23.00;99.90
16158;DHT22;8184;60.256;18.694;2022-08-19T09:55:51;22.90;99.90
16158;DHT22;8184;60.256;18.694;2022-08-19T09:58:20;23.00;99.90
16158;DHT22;8184;60.256;18.694;2022-08-19T10:00:52;22.90;99.90
16158;DHT22;8184;60.256;18.694;2022-08-19T10:03:22;23.10;99.90
16158;DHT22;8184;60.256;18.694;2022-08-19T10:05:56;22.90;99.90
16158;DHT22;8184;60.256;18.694;2022-08-19T10:08:29;22.90;99.90
16158;DHT22;8184;60.256;18.694;2022-08-19T10:10:59;23.00;99.90
16158;DHT22;8184;60.256;18.694;2022-08-19T10:13:47;22.80;99.90
16158;DHT22;8184;60.256;18.694;2022-08-19T10:16:18;22.50;99.90
16158;DHT22;8184;60.256;18.694;2022-08-19T10:18:52;22.60;99.90
16158;DHT22;8184;60.256;18.694;2022-08-19T10:21:25;22.60;99.90
16158;DHT22;8184;60.256;18.694;2022-08-19T10:24:00;22.80;99.90
16158;DHT22;8184;60.256;18.694;2022-08-19T10:26:31;23.40;99.90
16158;DHT22;8184;60.256;18.694;2022-08-19T10:29:00;23.80;99.90
16158;DHT22;8184;60.256;18.694;2022-08-19T10:31:29;23.90;99.90
16158;DHT22;8184;60.256;18.694;2022-08-19T10:34:18;23.90;99.90
16158;DHT22;8184;60.256;18.694;2022-08-19T10:36:53;23.80;99.90
16158;DHT22;8184;60.256;18.694;2022-08-19T10:39:29;23.70;99.90
16158;DHT22;8184;60.256;18.694;2022-08-19T10:42:09;24.00;99.90
16158;DHT22;8184;60.256;18.694;2022-08-19T10:44:40;24.30;99.90
16158;DHT22;8184;60.256;18.694;2022-08-19T10:47:09;24.40;99.90
16158;DHT22;8184;60.256;18.694;2022-08-19T10:49:50;24.40;99.90
16158;DHT22;8184;60.256;18.694;2022-08-19T10:52:37;24.40;99.90
16158;DHT22;8184;60.256;18.694;2022-08-19T10:55:17;24.00;99.90
16158;DHT22;8184;60.256;18.694;2022-08-19T10:58:09;24.30;99.90
16158;DHT22;8184;60.256;18.694;2022-08-19T11:00:38;24.40;99.90
16158;DHT22;8184;60.256;18.694;2022-08-19T11:03:07;24.00;99.90
16158;DHT22;8184;60.256;18.694;2022-08-19T11:05:35;23.90;99.90
16158;DHT22;8184;60.256;18.694;2022-08-19T11:08:06;23.60;99.90
16158;DHT22;8184;60.256;18.694;2022-08-19T11:10:52;23.80;99.90
16158;DHT22;8184;60.256;18.694;2022-08-19T11:13:27;23.50;99.90
16158;DHT22;8184;60.256;18.694;2022-08-19T11:15:56;23.70;99.90
16158;DHT22;8184;60.256;18.694;2022-08-19T11:18:30;24.10;99.90
16158;DHT22;8184;60.256;18.694;2022-08-19T11:21:04;24.40;99.90
16158;DHT22;8184;60.256;18.694;2022-08-19T11:23:38;24.40;99.90
16158;DHT22;8184;60.256;18.694;2022-08-19T11:26:08;24.30;99.90
16158;DHT22;8184;60.256;18.694;2022-08-19T11:28:36;24.80;99.90
16158;DHT22;8184;60.256;18.694;2022-08-19T11:31:08;24.20;99.90
16158;DHT22;8184;60.256;18.694;2022-08-19T11:33:37;24.00;99.90
16158;DHT22;8184;60.256;18.694;2022-08-19T11:36:07;24.50;99.90
16158;DHT22;8184;60.256;18.694;2022-08-19T11:38:40;24.60;99.90
16158;DHT22;8184;60.256;18.694;2022-08-19T11:41:10;25.10;99.90
16158;DHT22;8184;60.256;18.694;2022-08-19T11:43:40;24.90;99.90
16158;DHT22;8184;60.256;18.694;2022-08-19T11:46:09;24.70;99.90
16158;DHT22;8184;60.256;18.694;2022-08-19T11:48:38;24.70;99.90
16158;DHT22;8184;60.256;18.694;2022-08-19T11:51:09;24.90;99.90
16158;DHT22;8184;60.256;18.694;2022-08-19T11:53:38;25.40;99.90
16158;DHT22;8184;60.256;18.694;2022-08-19T11:56:07;25.20;99.90
16158;DHT22;8184;60.256;18.694;2022-08-19T11:58:37;24.50;99.90
16158;DHT22;8184;60.256;18.694;2022-08-19T12:01:14;24.60;99.90
16158;DHT22;8184;60.256;18.694;2022-08-19T12:03:43;24.60;99.90
16158;DHT22;8184;60.256;18.694;2022-08-19T12:06:13;24.60;99.90
16158;DHT22;8184;60.256;18.694;2022-08-19T12:08:41;24.80;99.90
16158;DHT22;8184;60.256;18.694;2022-08-19T12:11:10;24.60;99.90
16158;DHT22;8184;60.256;18.694;2022-08-19T12:13:40;25.10;99.90
16158;DHT22;8184;60.256;18.694;2022-08-19T12:16:14;24.70;99.90
16158;DHT22;8184;60.256;18.694;2022-08-19T12:18:43;24.60;99.90
16158;DHT22;8184;60.256;18.694;2022-08-19T12:21:13;24.30;99.90
16158;DHT22;8184;60.256;18.694;2022-08-19T12:23:41;24.00;99.90
16158;DHT22;8184;60.256;18.694;2022-08-19T12:26:10;24.00;99.90
16158;DHT22;8184;60.256;18.694;2022-08-19T12:28:40;24.40;99.90
16158;DHT22;8184;60.256;18.694;2022-08-19T12:31:11;24.40;99.90
16158;DHT22;8184;60.256;18.694;2022-08-19T12:33:39;24.20;99.90
16158;DHT22;8184;60.256;18.694;2022-08-19T12:36:09;24.70;99.90
16158;DHT22;8184;60.256;18.694;2022-08-19T12:38:37;24.70;99.90
16158;DHT22;8184;60.256;18.694;2022-08-19T12:41:06;24.50;99.90
16158;DHT22;8184;60.256;18.694;2022-08-19T12:43:35;24.70;99.90
16158;DHT22;8184;60.256;18.694;2022-08-19T12:46:05;24.70;99.90
16158;DHT22;8184;60.256;18.694;2022-08-19T12:48:37;24.80;99.90
16158;DHT22;8184;60.256;18.694;2022-08-19T12:51:09;24.70;99.90
16158;DHT22;8184;60.256;18.694;2022-08-19T12:53:37;24.90;99.90
16158;DHT22;8184;60.256;18.694;2022-08-19T12:56:05;24.90;99.90
16158;DHT22;8184;60.256;18.694;2022-08-19T12:58:38;24.50;99.90
16158;DHT22;8184;60.256;18.694;2022-08-19T13:01:08;24.40;99.90
16158;DHT22;8184;60.256;18.694;2022-08-19T13:03:37;24.10;99.90
16158;DHT22;8184;60.256;18.694;2022-08-19T13:06:06;24.60;99.90
16158;DHT22;8184;60.256;18.694;2022-08-19T13:08:35;24.60;99.90
16158;DHT22;8184;60.256;18.694;2022-08-19T13:11:06;24.20;99.90
16158;DHT22;8184;60.256;18.694;2022-08-19T13:13:36;24.40;99.90
16158;DHT22;8184;60.256;18.694;2022-08-19T13:16:10;24.50;99.90
16158;DHT22;8184;60.256;18.694;2022-08-19T13:18:39;24.40;99.90
16158;DHT22;8184;60.256;18.694;2022-08-19T13:21:08;24.40;99.90
16158;DHT22;8184;60.256;18.694;2022-08-19T13:23:38;24.50;99.90
16158;DHT22;8184;60.256;18.694;2022-08-19T13:26:06;24.50;99.90
16158;DHT22;8184;60.256;18.694;2022-08-19T13:28:35;24.50;99.90
16158;DHT22;8184;60.256;18.694;2022-08-19T13:31:23;24.10;99.90
16158;DHT22;8184;60.256;18.694;2022-08-19T13:34:09;24.30;99.90
16158;DHT22;8184;60.256;18.694;2022-08-19T13:36:39;24.00;99.90
16158;DHT22;8184;60.256;18.694;2022-08-19T13:39:08;23.70;99.90
16158;DHT22;8184;60.256;18.694;2022-08-19T13:41:36;24.00;99.90
16158;DHT22;8184;60.256;18.694;2022-08-19T13:44:05;23.80;99.90
16158;DHT22;8184;60.256;18.694;2022-08-19T13:46:35;24.20;99.90
16158;DHT22;8184;60.256;18.694;2022-08-19T13:49:03;24.00;99.90
16158;DHT22;8184;60.256;18.694;2022-08-19T13:51:31;23.60;99.90
16158;DHT22;8184;60.256;18.694;2022-08-19T13:54:01;23.80;99.90
16158;DHT22;8184;60.256;18.694;2022-08-19T13:56:30;24.00;99.90
16158;DHT22;8184;60.256;18.694;2022-08-19T13:58:58;23.70;99.90
16158;DHT22;8184;60.256;18.694;2022-08-19T14:01:26;23.50;99.90
16158;DHT22;8184;60.256;18.694;2022-08-19T14:03:58;23.70;99.90
16158;DHT22;8184;60.256;18.694;2022-08-19T14:06:27;23.90;99.90
16158;DHT22;8184;60.256;18.694;2022-08-19T14:08:55;24.00;99.90
16158;DHT22;8184;60.256;18.694;2022-08-19T14:11:23;23.80;99.90
16158;DHT22;8184;60.256;18.694;2022-08-19T14:13:54;23.70;99.90
16158;DHT22;8184;60.256;18.694;2022-08-19T14:16:22;23.70;99.90
16158;DHT22;8184;60.256;18.694;2022-08-19T14:18:51;23.80;99.90
16158;DHT22;8184;60.256;18.694;2022-08-19T14:21:22;23.90;99.90
16158;DHT22;8184;60.256;18.694;2022-08-19T14:23:52;23.40;99.90
16158;DHT22;8184;60.256;18.694;2022-08-19T14:26:20;23.30;99.90
16158;DHT22;8184;60.256;18.694;2022-08-19T14:29:00;23.30;99.90
16158;DHT22;8184;60.256;18.694;2022-08-19T14:31:31;23.20;99.90
16158;DHT22;8184;60.256;18.694;2022-08-19T14:33:59;23.00;99.90
16158;DHT22;8184;60.256;18.694;2022-08-19T14:36:31;23.10;99.90
16158;DHT22;8184;60.256;18.694;2022-08-19T14:39:04;23.30;99.90
16158;DHT22;8184;60.256;18.694;2022-08-19T14:41:33;23.80;99.90
16158;DHT22;8184;60.256;18.694;2022-08-19T14:44:01;24.00;99.90
16158;DHT22;8184;60.256;18.694;2022-08-19T14:46:30;23.80;99.90
16158;DHT22;8184;60.256;18.694;2022-08-19T14:49:00;23.80;99.90
16158;DHT22;8184;60.256;18.694;2022-08-19T14:51:39;24.30;99.90
16158;DHT22;8184;60.256;18.694;2022-08-19T14:54:09;24.50;99.90
16158;DHT22;8184;60.256;18.694;2022-08-19T14:56:39;24.40;99.90
16158;DHT22;8184;60.256;18.694;2022-08-19T14:59:07;24.50;99.90
16158;DHT22;8184;60.256;18.694;2022-08-19T15:01:35;24.50;99.90
16158;DHT22;8184;60.256;18.694;2022-08-19T15:04:04;24.80;99.90
16158;DHT22;8184;60.256;18.694;2022-08-19T15:06:32;24.90;99.90
16158;DHT22;8184;60.256;18.694;2022-08-19T15:09:02;24.40;99.90
16158;DHT22;8184;60.256;18.694;2022-08-19T15:11:31;24.90;99.90
16158;DHT22;8184;60.256;18.694;2022-08-19T15:14:02;24.70;99.90
16158;DHT22;8184;60.256;18.694;2022-08-19T15:16:31;24.90;99.90
16158;DHT22;8184;60.256;18.694;2022-08-19T15:19:00;24.70;99.90
16158;DHT22;8184;60.256;18.694;2022-08-19T15:21:28;24.70;99.90
16158;DHT22;8184;60.256;18.694;2022-08-19T15:23:57;24.50;99.90
16158;DHT22;8184;60.256;18.694;2022-08-19T15:26:28;24.90;99.90
16158;DHT22;8184;60.256;18.694;2022-08-19T15:28:58;24.70;99.90
16158;DHT22;8184;60.256;18.694;2022-08-19T15:31:27;24.60;99.90
16158;DHT22;8184;60.256;18.694;2022-08-19T15:33:55;24.60;99.90
16158;DHT22;8184;60.256;18.694;2022-08-19T15:36:25;24.20;99.90
16158;DHT22;8184;60.256;18.694;2022-08-19T15:38:56;24.00;99.90
16158;DHT22;8184;60.256;18.694;2022-08-19T15:41:26;24.00;99.90
16158;DHT22;8184;60.256;18.694;2022-08-19T15:43:58;23.70;99.90
16158;DHT22;8184;60.256;18.694;2022-08-19T15:46:29;23.60;99.90
16158;DHT22;8184;60.256;18.694;2022-08-19T15:48:58;23.60;99.90
16158;DHT22;8184;60.256;18.694;2022-08-19T15:51:28;23.60;99.90
16158;DHT22;8184;60.256;18.694;2022-08-19T15:53:57;23.60;99.90
16158;DHT22;8184;60.256;18.694;2022-08-19T15:56:28;23.60;99.90